Time;durP1;ratioP1;P1;durP2;ratioP2;P2;SDS_P1;SDS_P2;PMS_P1;PMS_P2;Temp;Humidity;BMP_temperature;BMP_pressure;BME280_temperature;BME280_humidity;BME280_pressure;Samples;Min_cycle;Max_cycle;Signal;HPM_P1;HPM_P2
2023/12/02 00:02:02;;;;;;;13.20;11.20;;;;;;;;;;5055734;28;20418;-71
2023/12/02 00:04:28;;;;;;;14.83;10.73;;;;;;;;;;5055477;28;20509;-71
2023/12/02 00:06:54;;;;;;;12.87;10.80;;;;;;;;;;5055611;28;20487;-71
2023/12/02 00:09:20;;;;;;;15.47;10.87;;;;;;;;;;5055711;28;20426;-71
2023/12/02 00:11:50;;;;;;;13.87;12.47;;;;;;;;;;5055391;28;20418;-72
2023/12/02 00:14:16;;;;;;;15.17;11.83;;;;;;;;;;5055328;28;21009;-71
2023/12/02 00:16:42;;;;;;;13.70;11.80;;;;;;;;;;5055827;28;20418;-71
2023/12/02 00:19:07;;;;;;;12.30;10.00;;;;;;;;;;5055334;28;20510;-71
2023/12/02 00:21:33;;;;;;;14.43;11.80;;;;;;;;;;5055588;28;20414;-71
2023/12/02 00:23:59;;;;;;;14.53;12.07;;;;;;;;;;5055424;28;20429;-71
2023/12/02 00:26:25;;;;;;;14.00;11.77;;;;;;;;;;5054174;28;20422;-71
2023/12/02 00:28:51;;;;;;;14.13;11.47;;;;;;;;;;5055152;28;20442;-71
2023/12/02 00:31:17;;;;;;;11.97;10.80;;;;;;;;;;5055399;28;20418;-71
2023/12/02 00:33:43;;;;;;;12.60;11.30;;;;;;;;;;5053734;28;20866;-71
2023/12/02 00:36:10;;;;;;;11.70;9.97;;;;;;;;;;5054940;28;20505;-72
2023/12/02 00:38:36;;;;;;;10.93;9.73;;;;;;;;;;5055497;28;20482;-71
2023/12/02 00:41:01;;;;;;;12.43;11.23;;;;;;;;;;5055182;28;20411;-71
2023/12/02 00:43:27;;;;;;;11.87;10.77;;;;;;;;;;5054712;28;20427;-71
2023/12/02 00:45:53;;;;;;;10.93;9.80;;;;;;;;;;5055160;28;20410;-72
2023/12/02 00:48:19;;;;;;;12.23;10.80;;;;;;;;;;5055050;28;20427;-71
2023/12/02 00:50:45;;;;;;;11.33;10.07;;;;;;;;;;5055023;28;20493;-71
2023/12/02 00:53:11;;;;;;;10.53;9.53;;;;;;;;;;5054636;28;20429;-71
2023/12/02 00:55:37;;;;;;;11.33;10.23;;;;;;;;;;5054603;28;20454;-71
2023/12/02 00:58:03;;;;;;;11.77;10.67;;;;;;;;;;5054417;28;20457;-71
2023/12/02 01:00:29;;;;;;;12.33;11.03;;;;;;;;;;5054429;28;20843;-71
2023/12/02 01:02:55;;;;;;;12.97;11.03;;;;;;;;;;5054474;28;20458;-72
2023/12/02 01:05:21;;;;;;;13.00;10.30;;;;;;;;;;5054695;28;20403;-71
2023/12/02 01:07:47;;;;;;;10.33;9.10;;;;;;;;;;5054393;28;20422;-71
2023/12/02 01:10:13;;;;;;;10.33;9.23;;;;;;;;;;5054415;28;20419;-71
2023/12/02 01:12:42;;;;;;;10.77;9.77;;;;;;;;;;5054156;28;20446;-71
2023/12/02 01:15:08;;;;;;;12.17;10.87;;;;;;;;;;5054070;28;20482;-71
2023/12/02 01:17:34;;;;;;;12.67;11.33;;;;;;;;;;5054219;28;20520;-71
2023/12/02 01:20:00;;;;;;;11.67;9.70;;;;;;;;;;5053957;28;20506;-71
2023/12/02 01:22:26;;;;;;;9.43;8.50;;;;;;;;;;5054079;28;20915;-71
2023/12/02 01:24:52;;;;;;;9.93;8.87;;;;;;;;;;5054290;28;20423;-71
2023/12/02 01:27:18;;;;;;;9.53;8.57;;;;;;;;;;5054217;28;20514;-71
2023/12/02 01:29:44;;;;;;;10.50;9.40;;;;;;;;;;5054125;28;20434;-71
2023/12/02 01:32:10;;;;;;;11.87;10.00;;;;;;;;;;5052557;28;20492;-71
2023/12/02 01:34:36;;;;;;;10.80;9.67;;;;;;;;;;5054062;28;20916;-71
2023/12/02 01:37:02;;;;;;;11.40;9.83;;;;;;;;;;5053749;28;20427;-71
2023/12/02 01:39:28;;;;;;;8.97;8.17;;;;;;;;;;5053821;28;20462;-71
2023/12/02 01:41:54;;;;;;;8.87;8.07;;;;;;;;;;5054219;28;20418;-71
2023/12/02 01:44:20;;;;;;;9.20;8.43;;;;;;;;;;5053614;28;20434;-71
2023/12/02 01:46:46;;;;;;;10.03;8.70;;;;;;;;;;5053721;28;20414;-71
2023/12/02 01:49:13;;;;;;;9.07;8.30;;;;;;;;;;5053933;28;20942;-71
2023/12/02 01:51:39;;;;;;;8.87;8.27;;;;;;;;;;5053554;28;20425;-71
2023/12/02 01:54:05;;;;;;;8.77;7.87;;;;;;;;;;5053766;28;20410;-71
2023/12/02 01:56:31;;;;;;;11.33;9.53;;;;;;;;;;5053538;28;20418;-71
2023/12/02 01:58:57;;;;;;;9.70;8.73;;;;;;;;;;5053526;28;20620;-71
2023/12/02 02:01:23;;;;;;;10.23;9.23;;;;;;;;;;5053366;28;20505;-71
2023/12/02 02:03:49;;;;;;;8.97;8.20;;;;;;;;;;5053219;28;20561;-71
2023/12/02 02:06:15;;;;;;;7.93;7.30;;;;;;;;;;5053589;28;20418;-71
2023/12/02 02:08:41;;;;;;;7.87;7.27;;;;;;;;;;5053337;28;20433;-71
2023/12/02 02:11:07;;;;;;;9.57;8.67;;;;;;;;;;5053228;28;20496;-71
2023/12/02 02:13:33;;;;;;;8.67;7.97;;;;;;;;;;5053110;28;20489;-71
2023/12/02 02:15:59;;;;;;;9.57;7.80;;;;;;;;;;5053238;28;20426;-71
2023/12/02 02:18:25;;;;;;;11.43;10.27;;;;;;;;;;5053328;28;20568;-71
2023/12/02 02:20:52;;;;;;;8.57;7.70;;;;;;;;;;5053173;28;20411;-71
2023/12/02 02:23:18;;;;;;;9.67;8.73;;;;;;;;;;5053079;28;20419;-71
2023/12/02 02:25:45;;;;;;;8.53;7.83;;;;;;;;;;5053345;28;20445;-71
2023/12/02 02:28:11;;;;;;;8.90;8.10;;;;;;;;;;5052905;28;20825;-71
2023/12/02 02:30:37;;;;;;;9.50;8.50;;;;;;;;;;5053203;28;20497;-71
2023/12/02 02:33:03;;;;;;;9.50;8.80;;;;;;;;;;5052868;28;20425;-71
2023/12/02 02:35:29;;;;;;;8.20;7.50;;;;;;;;;;5053065;28;20494;-71
2023/12/02 02:37:55;;;;;;;9.33;7.67;;;;;;;;;;5052954;28;20577;-71
2023/12/02 02:40:21;;;;;;;8.97;8.17;;;;;;;;;;5053237;28;20422;-71
2023/12/02 02:42:46;;;;;;;7.97;7.37;;;;;;;;;;5051357;28;20422;-71
2023/12/02 02:45:13;;;;;;;8.93;8.17;;;;;;;;;;5053227;28;20446;-71
2023/12/02 02:47:38;;;;;;;6.67;6.27;;;;;;;;;;5052772;28;20418;-71
2023/12/02 02:50:05;;;;;;;4.97;4.40;;;;;;;;;;5052876;28;20418;-71
2023/12/02 02:52:31;;;;;;;8.63;8.03;;;;;;;;;;5052754;28;20453;-71
2023/12/02 02:54:57;;;;;;;8.00;7.23;;;;;;;;;;5052983;28;20423;-71
2023/12/02 02:57:23;;;;;;;8.63;7.83;;;;;;;;;;5054885;28;20466;-71
2023/12/02 02:59:49;;;;;;;8.00;7.47;;;;;;;;;;5057019;28;20426;-71
2023/12/02 03:02:15;;;;;;;7.73;7.17;;;;;;;;;;5056848;28;20402;-71
2023/12/02 03:04:41;;;;;;;6.70;6.20;;;;;;;;;;5056475;28;20515;-71
2023/12/02 03:07:07;;;;;;;5.63;5.30;;;;;;;;;;5056603;28;20410;-71
2023/12/02 03:09:33;;;;;;;8.00;7.30;;;;;;;;;;5056581;28;20418;-72
2023/12/02 03:11:58;;;;;;;7.33;6.83;;;;;;;;;;5056570;28;20468;-71
2023/12/02 03:14:24;;;;;;;4.40;4.20;;;;;;;;;;5056390;28;20426;-71
2023/12/02 03:16:50;;;;;;;5.63;5.33;;;;;;;;;;5056675;28;20416;-71
2023/12/02 03:19:17;;;;;;;5.83;5.50;;;;;;;;;;5056281;28;20569;-72
2023/12/02 03:21:43;;;;;;;5.40;5.00;;;;;;;;;;5057203;28;20425;-72
2023/12/02 03:24:09;;;;;;;5.50;5.10;;;;;;;;;;5054967;28;20426;-71
2023/12/02 03:26:36;;;;;;;6.37;5.70;;;;;;;;;;5056561;28;20926;-71
2023/12/02 03:29:02;;;;;;;5.73;5.33;;;;;;;;;;5057073;28;20410;-72
2023/12/02 03:31:28;;;;;;;5.87;5.40;;;;;;;;;;5056175;28;20418;-72
2023/12/02 03:33:54;;;;;;;5.20;4.97;;;;;;;;;;5056380;28;20760;-72
2023/12/02 03:36:20;;;;;;;4.83;4.70;;;;;;;;;;5056365;28;20760;-71
2023/12/02 03:38:46;;;;;;;5.47;5.17;;;;;;;;;;5056007;28;20570;-72
2023/12/02 03:41:12;;;;;;;5.60;5.30;;;;;;;;;;5056316;28;20410;-72
2023/12/02 03:43:38;;;;;;;5.33;4.97;;;;;;;;;;5056249;28;20463;-72
2023/12/02 03:46:04;;;;;;;4.57;4.30;;;;;;;;;;5055948;28;20410;-73
2023/12/02 03:48:30;;;;;;;4.90;4.60;;;;;;;;;;5056227;28;20421;-72
2023/12/02 03:50:58;;;;;;;6.70;6.27;;;;;;;;;;5056228;28;20472;-72
2023/12/02 03:53:24;;;;;;;5.17;4.87;;;;;;;;;;5055724;28;20804;-72
2023/12/02 03:55:50;;;;;;;5.10;4.70;;;;;;;;;;5055974;28;20960;-72
2023/12/02 03:58:16;;;;;;;5.20;5.00;;;;;;;;;;5055825;28;20470;-72
2023/12/02 04:00:42;;;;;;;5.43;5.00;;;;;;;;;;5056292;28;20925;-72
2023/12/02 04:03:08;;;;;;;6.47;5.90;;;;;;;;;;5054071;28;20849;-72
2023/12/02 04:05:34;;;;;;;5.90;5.43;;;;;;;;;;5055586;28;20421;-72
2023/12/02 04:08:00;;;;;;;5.40;5.17;;;;;;;;;;5055572;28;20898;-72
2023/12/02 04:10:26;;;;;;;5.23;4.93;;;;;;;;;;5056093;28;20819;-72
2023/12/02 04:12:52;;;;;;;4.70;4.40;;;;;;;;;;5055606;28;20415;-72
2023/12/02 04:15:18;;;;;;;4.30;4.10;;;;;;;;;;5055608;28;20467;-73
2023/12/02 04:17:46;;;;;;;3.63;3.53;;;;;;;;;;5055266;28;20481;-72
2023/12/02 04:20:15;;;;;;;4.93;4.70;;;;;;;;;;5055748;28;20441;-72
2023/12/02 04:22:41;;;;;;;5.10;4.90;;;;;;;;;;5055723;28;20890;-72
2023/12/02 04:25:07;;;;;;;5.17;4.77;;;;;;;;;;5055488;28;20406;-72
2023/12/02 04:27:33;;;;;;;4.83;4.63;;;;;;;;;;5055183;28;20513;-72
2023/12/02 04:29:59;;;;;;;4.07;3.97;;;;;;;;;;5055191;28;20453;-73
2023/12/02 04:32:25;;;;;;;5.40;5.10;;;;;;;;;;5055092;28;20829;-72
2023/12/02 04:34:51;;;;;;;4.93;4.73;;;;;;;;;;5054999;28;20446;-71
2023/12/02 04:37:17;;;;;;;4.73;4.53;;;;;;;;;;5055430;28;20457;-71
2023/12/02 04:42:46;;;;;;;4.40;4.27;;;;;;;;;;5054809;28;20757;-71
2023/12/02 04:45:12;;;;;;;5.43;5.13;;;;;;;;;;5054872;28;20407;-71
2023/12/02 04:47:38;;;;;;;4.77;4.53;;;;;;;;;;5055159;28;20756;-71
2023/12/02 04:50:05;;;;;;;6.07;5.77;;;;;;;;;;5055025;28;20423;-71
2023/12/02 04:52:31;;;;;;;5.77;5.37;;;;;;;;;;5054685;28;20938;-71
2023/12/02 04:54:57;;;;;;;5.83;5.43;;;;;;;;;;5054558;28;20489;-71
2023/12/02 04:57:23;;;;;;;5.47;5.17;;;;;;;;;;5054739;28;20465;-71
2023/12/02 05:02:52;;;;;;;5.57;5.30;;;;;;;;;;5054058;28;20897;-71
2023/12/02 05:05:18;;;;;;;4.90;4.60;;;;;;;;;;5054836;28;20438;-71
2023/12/02 05:07:45;;;;;;;4.50;4.40;;;;;;;;;;5054481;28;20853;-71
2023/12/02 05:10:11;;;;;;;5.13;4.83;;;;;;;;;;5054858;28;20501;-71
2023/12/02 05:12:37;;;;;;;6.03;5.50;;;;;;;;;;5054388;28;20427;-71
2023/12/02 05:15:04;;;;;;;5.50;5.30;;;;;;;;;;5054515;28;20429;-71
2023/12/02 05:17:30;;;;;;;5.57;5.27;;;;;;;;;;5054350;28;20510;-71
2023/12/02 05:19:57;;;;;;;4.40;4.10;;;;;;;;;;5053577;28;20806;-71
2023/12/02 05:22:23;;;;;;;5.53;5.17;;;;;;;;;;5055124;28;20426;-71
2023/12/02 05:24:49;;;;;;;6.47;6.07;;;;;;;;;;5054140;28;20411;-71
2023/12/02 05:27:15;;;;;;;4.87;4.67;;;;;;;;;;5052735;28;20509;-71
2023/12/02 05:32:45;;;;;;;4.90;4.60;;;;;;;;;;5053877;28;20436;-71
2023/12/02 05:35:11;;;;;;;6.60;5.17;;;;;;;;;;5054399;28;20823;-71
2023/12/02 05:37:37;;;;;;;5.27;4.90;;;;;;;;;;5052276;28;20492;-71
2023/12/02 05:40:04;;;;;;;7.90;6.10;;;;;;;;;;5054042;28;20431;-71
2023/12/02 05:42:30;;;;;;;5.53;5.13;;;;;;;;;;5053744;28;20421;-71
2023/12/02 05:44:56;;;;;;;5.87;5.57;;;;;;;;;;5053972;28;20414;-71
2023/12/02 05:47:22;;;;;;;4.97;4.77;;;;;;;;;;5053987;28;20418;-71
2023/12/02 05:49:48;;;;;;;5.77;5.47;;;;;;;;;;5053410;28;20501;-71
2023/12/02 05:52:14;;;;;;;6.57;6.10;;;;;;;;;;5053855;28;20434;-71
2023/12/02 05:54:39;;;;;;;4.60;4.40;;;;;;;;;;5053476;28;20958;-71
2023/12/02 05:57:05;;;;;;;5.03;4.73;;;;;;;;;;5053914;28;20833;-71
2023/12/02 05:59:31;;;;;;;5.93;5.60;;;;;;;;;;5052156;28;20814;-72
2023/12/02 06:01:57;;;;;;;5.50;5.10;;;;;;;;;;5053390;28;20430;-71
2023/12/02 06:04:24;;;;;;;5.90;5.50;;;;;;;;;;5053281;28;20478;-71
2023/12/02 06:06:50;;;;;;;6.63;6.00;;;;;;;;;;5054001;28;20423;-71
2023/12/02 06:09:15;;;;;;;5.00;4.70;;;;;;;;;;5053446;28;20415;-71
2023/12/02 06:11:43;;;;;;;5.37;4.90;;;;;;;;;;5053254;28;20514;-71
2023/12/02 06:14:09;;;;;;;4.90;4.70;;;;;;;;;;5052975;28;20414;-71
2023/12/02 06:16:35;;;;;;;6.30;5.70;;;;;;;;;;5051922;28;20462;-71
2023/12/02 06:19:02;;;;;;;6.07;5.67;;;;;;;;;;5053152;28;20497;-71
2023/12/02 06:21:28;;;;;;;5.20;4.90;;;;;;;;;;5053346;28;20425;-71
2023/12/02 06:23:54;;;;;;;5.27;4.90;;;;;;;;;;5053008;28;20414;-71
2023/12/02 06:26:19;;;;;;;5.97;5.50;;;;;;;;;;5053228;28;20518;-71
2023/12/02 06:28:49;;;;;;;3.60;3.50;;;;;;;;;;5052931;28;20418;-71
2023/12/02 06:31:15;;;;;;;6.77;6.17;;;;;;;;;;5052425;28;20577;-71
2023/12/02 06:33:41;;;;;;;4.90;4.63;;;;;;;;;;5053166;28;20926;-72
2023/12/02 06:36:08;;;;;;;4.80;4.40;;;;;;;;;;5053227;28;20418;-71
2023/12/02 06:38:36;;;;;;;5.40;5.17;;;;;;;;;;5052673;28;20830;-71
2023/12/02 06:41:02;;;;;;;6.17;5.63;;;;;;;;;;5052905;28;20403;-71
2023/12/02 06:43:28;;;;;;;5.30;4.90;;;;;;;;;;5052810;28;20429;-71
2023/12/02 06:45:54;;;;;;;5.20;4.90;;;;;;;;;;5052746;28;20502;-71
2023/12/02 06:48:20;;;;;;;5.13;4.83;;;;;;;;;;5052871;28;20883;-71
2023/12/02 06:50:46;;;;;;;5.20;4.93;;;;;;;;;;5052856;28;20467;-71
2023/12/02 06:53:15;;;;;;;6.10;5.70;;;;;;;;;;5053054;28;20467;-71
2023/12/02 06:55:42;;;;;;;6.20;5.80;;;;;;;;;;5052947;28;20407;-72
2023/12/02 06:58:08;;;;;;;4.47;4.27;;;;;;;;;;5052764;28;20482;-71
2023/12/02 07:00:34;;;;;;;5.23;4.93;;;;;;;;;;5052788;28;20425;-71
2023/12/02 07:03:00;;;;;;;5.60;5.30;;;;;;;;;;5052454;28;20466;-71
2023/12/02 07:05:26;;;;;;;5.20;4.80;;;;;;;;;;5052578;28;20437;-71
2023/12/02 07:07:52;;;;;;;5.47;5.20;;;;;;;;;;5052983;28;20422;-71
2023/12/02 07:10:18;;;;;;;5.43;5.13;;;;;;;;;;5052969;28;20410;-71
2023/12/02 07:12:45;;;;;;;5.70;5.20;;;;;;;;;;5052843;28;20929;-71
2023/12/02 07:15:11;;;;;;;5.20;5.00;;;;;;;;;;5052501;28;20782;-71
2023/12/02 07:17:37;;;;;;;5.80;5.30;;;;;;;;;;5052637;28;20457;-71
2023/12/02 07:20:03;;;;;;;6.10;5.70;;;;;;;;;;5052517;28;20422;-74
2023/12/02 07:22:29;;;;;;;4.53;4.23;;;;;;;;;;5052520;28;20446;-72
2023/12/02 07:24:55;;;;;;;5.80;5.50;;;;;;;;;;5052341;28;20433;-72
2023/12/02 07:27:21;;;;;;;5.37;4.87;;;;;;;;;;5052684;28;20414;-72
2023/12/02 07:29:47;;;;;;;4.53;4.20;;;;;;;;;;5052551;28;20429;-72
2023/12/02 07:32:13;;;;;;;5.60;5.23;;;;;;;;;;5052412;28;20807;-72
2023/12/02 07:34:39;;;;;;;5.83;5.50;;;;;;;;;;5052404;28;20422;-72
2023/12/02 07:37:05;;;;;;;5.17;4.87;;;;;;;;;;5052379;28;20423;-72
2023/12/02 07:39:31;;;;;;;5.13;4.90;;;;;;;;;;5052172;28;20483;-72
2023/12/02 07:41:57;;;;;;;6.07;4.50;;;;;;;;;;5052424;28;20899;-72
2023/12/02 07:44:24;;;;;;;4.63;4.43;;;;;;;;;;5055877;28;20431;-73
2023/12/02 07:46:50;;;;;;;5.00;4.80;;;;;;;;;;5055917;28;20438;-72
2023/12/02 07:49:16;;;;;;;5.73;5.33;;;;;;;;;;5056008;28;20418;-72
2023/12/02 07:51:42;;;;;;;7.83;5.90;;;;;;;;;;5056152;28;20857;-72
2023/12/02 07:54:08;;;;;;;5.10;4.70;;;;;;;;;;5055656;28;20421;-72
2023/12/02 07:56:36;;;;;;;5.30;5.10;;;;;;;;;;5055928;28;20921;-72
2023/12/02 08:02:06;;;;;;;5.17;4.77;;;;;;;;;;5055816;28;20406;-73
2023/12/02 08:04:32;;;;;;;5.70;5.40;;;;;;;;;;5055553;28;20513;-72
2023/12/02 08:06:58;;;;;;;3.47;3.27;;;;;;;;;;5055910;28;20972;-72
2023/12/02 08:09:24;;;;;;;4.83;4.53;;;;;;;;;;5055856;28;20525;-72
2023/12/02 08:11:50;;;;;;;5.67;5.27;;;;;;;;;;5055432;28;20446;-72
2023/12/02 08:14:16;;;;;;;4.40;4.30;;;;;;;;;;5055621;28;20423;-72
2023/12/02 08:16:42;;;;;;;5.00;4.67;;;;;;;;;;5055389;28;20509;-72
2023/12/02 08:22:11;;;;;;;4.53;4.27;;;;;;;;;;5055441;28;20497;-72
2023/12/02 08:24:42;;;;;;;5.43;5.13;;;;;;;;;;5055111;28;20818;-72
2023/12/02 08:27:08;;;;;;;5.43;5.07;;;;;;;;;;5055382;28;20425;-72
2023/12/02 08:29:34;;;;;;;5.13;4.80;;;;;;;;;;5055372;28;20419;-72
2023/12/02 08:32:00;;;;;;;5.53;5.13;;;;;;;;;;5055416;28;20418;-72
2023/12/02 08:34:26;;;;;;;5.67;5.17;;;;;;;;;;5055515;28;20829;-72
2023/12/02 08:36:52;;;;;;;5.37;4.97;;;;;;;;;;5055075;28;20442;-72
2023/12/02 08:39:18;;;;;;;5.77;5.30;;;;;;;;;;5054767;28;20473;-70
2023/12/02 08:41:44;;;;;;;5.37;5.03;;;;;;;;;;5055072;28;20437;-72
2023/12/02 08:44:10;;;;;;;4.50;4.27;;;;;;;;;;5054721;28;20429;-73
2023/12/02 08:46:36;;;;;;;5.47;5.17;;;;;;;;;;5054781;28;20421;-73
2023/12/02 08:49:02;;;;;;;4.93;4.63;;;;;;;;;;5055364;28;20422;-72
2023/12/02 08:51:28;;;;;;;4.53;4.30;;;;;;;;;;5055027;28;20429;-72
2023/12/02 08:53:59;;;;;;;6.00;5.10;;;;;;;;;;5053863;28;20419;-73
2023/12/02 08:56:25;;;;;;;6.10;5.70;;;;;;;;;;5055022;28;20402;-73
2023/12/02 08:58:51;;;;;;;6.93;5.83;;;;;;;;;;5054616;28;20958;-73
2023/12/02 09:01:17;;;;;;;5.30;4.93;;;;;;;;;;5054574;28;20411;-73
2023/12/02 09:03:43;;;;;;;5.27;4.77;;;;;;;;;;5054215;28;20954;-73
2023/12/02 09:06:09;;;;;;;3.57;3.47;;;;;;;;;;5054336;28;20410;-72
2023/12/02 09:08:35;;;;;;;4.80;4.50;;;;;;;;;;5054393;28;20426;-73
2023/12/02 09:11:02;;;;;;;5.03;4.67;;;;;;;;;;5054559;28;20438;-73
2023/12/02 09:13:28;;;;;;;4.57;4.33;;;;;;;;;;5054000;28;20520;-73
2023/12/02 09:15:54;;;;;;;4.07;3.87;;;;;;;;;;5054381;28;20445;-73
2023/12/02 09:18:26;;;;;;;4.20;4.00;;;;;;;;;;5054050;28;20482;-73
2023/12/02 09:20:53;;;;;;;4.83;4.53;;;;;;;;;;5053995;28;20423;-72
2023/12/02 09:23:23;;;;;;;6.33;5.87;;;;;;;;;;5053908;28;20910;-73
2023/12/02 09:25:50;;;;;;;5.10;4.80;;;;;;;;;;5054278;28;20870;-73
2023/12/02 09:28:27;;;;;;;4.83;4.53;;;;;;;;;;5054326;28;20422;-73
2023/12/02 09:30:56;;;;;;;5.87;5.50;;;;;;;;;;5052536;28;20768;-73
2023/12/02 09:33:22;;;;;;;5.80;5.50;;;;;;;;;;5053676;28;20410;-72
2023/12/02 09:35:52;;;;;;;5.40;4.90;;;;;;;;;;5054000;28;20419;-72
2023/12/02 09:38:18;;;;;;;4.80;4.50;;;;;;;;;;5054200;28;20485;-73
2023/12/02 09:40:44;;;;;;;5.60;5.30;;;;;;;;;;5053730;28;20500;-73
2023/12/02 09:43:28;;;;;;;4.57;4.37;;;;;;;;;;5053574;28;20845;-73
2023/12/02 09:46:03;;;;;;;9.40;7.90;;;;;;;;;;5053913;28;20420;-73
2023/12/02 09:48:31;;;;;;;7.30;6.63;;;;;;;;;;5053885;28;20468;-72
2023/12/02 09:51:05;;;;;;;6.87;6.37;;;;;;;;;;5053878;28;20410;-72
2023/12/02 09:53:50;;;;;;;7.27;6.77;;;;;;;;;;5053609;28;20428;-73
2023/12/02 09:56:21;;;;;;;5.23;4.83;;;;;;;;;;5053319;28;20980;-72
2023/12/02 09:58:47;;;;;;;5.57;5.27;;;;;;;;;;5052956;28;20477;-72
2023/12/02 10:01:25;;;;;;;5.77;5.37;;;;;;;;;;5052859;28;20433;-73
2023/12/02 10:03:51;;;;;;;5.80;5.40;;;;;;;;;;5051996;28;20564;-73
2023/12/02 10:06:36;;;;;;;4.40;4.20;;;;;;;;;;5052818;28;20953;-72
2023/12/02 10:09:02;;;;;;;5.40;5.10;;;;;;;;;;5052724;28;20438;-72
2023/12/02 10:11:55;;;;;;;6.80;5.50;;;;;;;;;;5052789;28;20475;-73
2023/12/02 10:14:23;;;;;;;4.97;4.67;;;;;;;;;;5044086;28;20442;-72
2023/12/02 10:16:50;;;;;;;6.80;6.20;;;;;;;;;;5052607;28;20406;-73
2023/12/02 10:19:21;;;;;;;5.50;5.03;;;;;;;;;;5052397;28;21004;-72
2023/12/02 10:21:50;;;;;;;5.40;5.10;;;;;;;;;;5052430;28;20767;-72
2023/12/02 10:24:21;;;;;;;5.13;4.73;;;;;;;;;;5052785;28;20415;-73
2023/12/02 10:26:47;;;;;;;4.60;4.40;;;;;;;;;;5053221;28;20402;-73
2023/12/02 10:32:34;;;;;;;7.50;6.80;;;;;;;;;;5052871;28;20401;-73
2023/12/02 10:35:11;;;;;;;5.40;5.00;;;;;;;;;;5052972;28;20421;-73
2023/12/02 10:37:39;;;;;;;4.90;4.60;;;;;;;;;;5053171;28;20449;-73
2023/12/02 10:40:07;;;;;;;5.37;5.17;;;;;;;;;;5052880;28;20422;-72
2023/12/02 10:42:52;;;;;;;4.40;4.20;;;;;;;;;;5052795;28;20406;-72
2023/12/02 10:45:20;;;;;;;5.50;5.30;;;;;;;;;;5053149;28;20778;-72
2023/12/02 10:47:47;;;;;;;6.30;4.80;;;;;;;;;;5052822;28;20494;-72
2023/12/02 10:50:14;;;;;;;4.97;3.67;;;;;;;;;;5052919;28;20423;-73
2023/12/02 10:52:42;;;;;;;5.47;5.00;;;;;;;;;;5051390;28;20932;-73
2023/12/02 10:55:08;;;;;;;6.80;6.20;;;;;;;;;;5052883;28;20426;-73
2023/12/02 10:57:34;;;;;;;7.67;6.80;;;;;;;;;;5052499;28;20414;-74
2023/12/02 11:00:06;;;;;;;6.30;6.00;;;;;;;;;;5052462;28;20792;-73
2023/12/02 11:02:42;;;;;;;5.10;4.80;;;;;;;;;;5053010;28;20502;-72
2023/12/02 11:05:22;;;;;;;4.87;4.67;;;;;;;;;;5052832;28;20425;-74
2023/12/02 11:07:55;;;;;;;5.23;4.93;;;;;;;;;;5052822;28;20436;-73
2023/12/02 11:10:31;;;;;;;5.50;5.00;;;;;;;;;;5052724;28;20419;-70
2023/12/02 11:13:00;;;;;;;5.10;4.77;;;;;;;;;;5052925;28;20402;-73
2023/12/02 11:15:28;;;;;;;5.57;5.17;;;;;;;;;;5052548;28;20533;-73
2023/12/02 11:17:57;;;;;;;5.37;4.90;;;;;;;;;;5054191;28;20477;-73
2023/12/02 11:20:41;;;;;;;5.60;5.23;;;;;;;;;;5056311;28;20517;-73
2023/12/02 11:23:07;;;;;;;5.17;4.97;;;;;;;;;;5056573;28;20828;-73
2023/12/02 11:25:48;;;;;;;4.20;4.00;;;;;;;;;;5056258;28;20509;-72
2023/12/02 11:28:24;;;;;;;7.47;6.77;;;;;;;;;;5056124;28;20784;-72
2023/12/02 11:30:49;;;;;;;4.97;4.77;;;;;;;;;;5056578;28;20426;-72
2023/12/02 11:33:34;;;;;;;9.50;4.40;;;;;;;;;;5056339;28;20410;-73
2023/12/02 11:36:03;;;;;;;4.70;4.50;;;;;;;;;;5056178;28;20544;-72
2023/12/02 11:38:32;;;;;;;4.10;3.90;;;;;;;;;;5055959;28;20556;-73
2023/12/02 11:41:13;;;;;;;3.70;3.60;;;;;;;;;;5056024;28;20422;-73
2023/12/02 11:43:47;;;;;;;5.00;4.70;;;;;;;;;;5056147;28;20414;-72
2023/12/02 11:46:21;;;;;;;3.70;3.60;;;;;;;;;;5054752;28;20411;-73
2023/12/02 11:48:53;;;;;;;7.33;6.90;;;;;;;;;;5056122;28;20419;-73
2023/12/02 11:51:25;;;;;;;6.43;6.03;;;;;;;;;;5056514;28;20403;-73
2023/12/02 11:54:26;;;;;;;5.23;5.00;;;;;;;;;;5056000;28;20517;-72
2023/12/02 11:57:11;;;;;;;5.03;4.73;;;;;;;;;;5033975;28;20461;-72
2023/12/02 11:59:44;;;;;;;5.23;4.83;;;;;;;;;;5054121;28;20486;-73
2023/12/02 12:02:24;;;;;;;5.37;5.07;;;;;;;;;;5056200;28;20866;-73
2023/12/02 12:04:49;;;;;;;5.30;5.00;;;;;;;;;;5055827;28;20433;-73
2023/12/02 12:07:20;;;;;;;5.03;4.70;;;;;;;;;;5055620;28;20418;-73
2023/12/02 12:10:07;;;;;;;4.17;3.97;;;;;;;;;;5056018;28;20918;-73
2023/12/02 12:12:34;;;;;;;4.23;4.03;;;;;;;;;;5055755;28;20468;-73
2023/12/02 12:15:01;;;;;;;4.30;4.10;;;;;;;;;;5055619;28;20445;-73
2023/12/02 12:17:28;;;;;;;5.20;4.80;;;;;;;;;;5055391;28;20418;-73
2023/12/02 12:22:59;;;;;;;5.50;5.20;;;;;;;;;;5055285;28;20398;-72
2023/12/02 12:25:29;;;;;;;4.00;3.90;;;;;;;;;;5055457;28;20412;-72
2023/12/02 12:28:00;;;;;;;3.83;3.67;;;;;;;;;;5055402;28;20817;-72
2023/12/02 12:30:26;;;;;;;4.03;3.93;;;;;;;;;;5054325;28;20404;-72
2023/12/02 12:32:52;;;;;;;3.27;3.17;;;;;;;;;;5055075;28;20411;-72
2023/12/02 12:35:19;;;;;;;3.73;3.63;;;;;;;;;;5055344;28;20414;-72
2023/12/02 12:37:45;;;;;;;3.50;3.30;;;;;;;;;;5055133;28;20469;-72
2023/12/02 12:40:12;;;;;;;3.80;3.60;;;;;;;;;;5055005;28;20508;-72
2023/12/02 12:42:48;;;;;;;4.53;4.13;;;;;;;;;;5054757;28;20483;-72
2023/12/02 12:45:14;;;;;;;5.53;4.00;;;;;;;;;;5055140;28;20902;-73
2023/12/02 12:47:42;;;;;;;3.43;3.33;;;;;;;;;;5054752;28;20474;-73
2023/12/02 12:50:11;;;;;;;4.47;4.27;;;;;;;;;;5055055;28;20419;-72
2023/12/02 12:52:40;;;;;;;3.50;3.20;;;;;;;;;;5054636;28;20502;-72
2023/12/02 12:55:08;;;;;;;3.47;3.37;;;;;;;;;;5054956;28;20484;-72
2023/12/02 12:57:46;;;;;;;3.77;3.57;;;;;;;;;;5054727;28;20446;-72
2023/12/02 13:00:14;;;;;;;4.47;4.17;;;;;;;;;;5054545;28;20433;-72
2023/12/02 13:02:58;;;;;;;3.10;3.00;;;;;;;;;;5054273;28;20415;-72
2023/12/02 13:05:32;;;;;;;4.27;4.07;;;;;;;;;;5054600;28;20465;-72
2023/12/02 13:08:03;;;;;;;3.77;3.67;;;;;;;;;;5054718;28;20417;-72
2023/12/02 13:10:34;;;;;;;3.63;3.43;;;;;;;;;;5054798;28;20445;-72
2023/12/02 13:13:02;;;;;;;4.83;3.80;;;;;;;;;;5054496;28;20463;-72
2023/12/02 13:15:28;;;;;;;4.80;4.60;;;;;;;;;;5054379;28;20445;-72
2023/12/02 13:17:55;;;;;;;3.47;3.27;;;;;;;;;;5054059;28;20500;-72
2023/12/02 13:20:22;;;;;;;4.43;4.23;;;;;;;;;;5054200;28;20906;-72
2023/12/02 13:22:49;;;;;;;4.07;3.93;;;;;;;;;;5054286;28;20905;-72
2023/12/02 13:25:25;;;;;;;3.83;3.53;;;;;;;;;;5054398;28;20510;-72
2023/12/02 13:27:59;;;;;;;2.90;2.77;;;;;;;;;;5053889;28;20517;-72
2023/12/02 13:30:25;;;;;;;4.60;4.30;;;;;;;;;;5054255;28;20909;-72
2023/12/02 13:32:54;;;;;;;5.40;4.90;;;;;;;;;;5054167;28;20498;-72
2023/12/02 13:35:30;;;;;;;6.10;5.43;;;;;;;;;;5054276;28;20905;-72
2023/12/02 13:38:03;;;;;;;11.70;7.03;;;;;;;;;;5053842;28;21013;-72
2023/12/02 13:40:39;;;;;;;5.40;4.97;;;;;;;;;;5053701;28;20806;-72
2023/12/02 13:43:06;;;;;;;4.57;4.20;;;;;;;;;;5054163;28;20403;-72
2023/12/02 13:45:33;;;;;;;4.17;3.77;;;;;;;;;;5053610;28;20427;-72
2023/12/02 13:48:04;;;;;;;4.13;3.90;;;;;;;;;;5053402;28;20488;-72
2023/12/02 13:50:39;;;;;;;3.90;3.60;;;;;;;;;;5053920;28;20430;-72
2023/12/02 13:53:23;;;;;;;5.17;4.47;;;;;;;;;;5054323;28;20391;-72
2023/12/02 13:55:57;;;;;;;4.07;3.73;;;;;;;;;;5053490;28;20585;-72
2023/12/02 13:58:27;;;;;;;4.70;4.47;;;;;;;;;;5053670;28;20973;-72
2023/12/02 14:00:53;;;;;;;5.63;5.13;;;;;;;;;;5053388;28;20418;-72
2023/12/02 14:03:19;;;;;;;4.73;4.37;;;;;;;;;;5053236;28;20480;-72
2023/12/02 14:05:49;;;;;;;5.47;4.23;;;;;;;;;;5053481;28;20512;-72
2023/12/02 14:08:17;;;;;;;4.57;4.37;;;;;;;;;;5053373;28;20406;-71
2023/12/02 14:10:45;;;;;;;4.13;4.03;;;;;;;;;;5053286;28;20410;-72
2023/12/02 14:13:30;;;;;;;4.33;4.13;;;;;;;;;;5053076;28;20402;-72
2023/12/02 14:16:05;;;;;;;4.73;4.53;;;;;;;;;;5053150;28;20501;-72
2023/12/02 14:18:43;;;;;;;3.70;3.50;;;;;;;;;;5053328;28;20458;-72
2023/12/02 14:21:17;;;;;;;6.67;5.07;;;;;;;;;;5053219;28;20456;-72
2023/12/02 14:24:12;;;;;;;4.33;4.10;;;;;;;;;;5053470;28;20910;-72
2023/12/02 14:26:47;;;;;;;4.50;4.20;;;;;;;;;;5033782;28;20438;-72
2023/12/02 14:29:19;;;;;;;5.20;4.90;;;;;;;;;;5053534;28;20421;-72
2023/12/02 14:31:57;;;;;;;7.57;6.40;;;;;;;;;;5053742;28;20411;-72
2023/12/02 14:34:42;;;;;;;8.20;5.40;;;;;;;;;;5052968;28;20497;-72
2023/12/02 14:37:11;;;;;;;7.40;6.47;;;;;;;;;;5052726;28;20422;-72
2023/12/02 14:39:40;;;;;;;5.87;5.43;;;;;;;;;;5053006;28;20528;-72
2023/12/02 14:42:14;;;;;;;7.20;6.63;;;;;;;;;;5051731;28;20901;-72
2023/12/02 14:44:41;;;;;;;4.63;4.33;;;;;;;;;;5053352;28;20512;-72
2023/12/02 14:47:10;;;;;;;6.93;6.33;;;;;;;;;;5052993;28;20501;-72
2023/12/02 14:49:40;;;;;;;12.30;7.40;;;;;;;;;;5053027;28;20426;-72
2023/12/02 14:52:07;;;;;;;4.73;4.43;;;;;;;;;;5053206;28;20414;-72
2023/12/02 14:54:34;;;;;;;6.07;5.57;;;;;;;;;;5057224;28;20425;-72
2023/12/02 14:57:20;;;;;;;7.50;6.43;;;;;;;;;;5056885;28;20471;-72
2023/12/02 15:02:50;;;;;;;6.27;5.67;;;;;;;;;;5056429;28;20453;-72
2023/12/02 15:05:16;;;;;;;6.20;5.70;;;;;;;;;;5056951;28;20397;-72
2023/12/02 15:07:47;;;;;;;9.13;6.70;;;;;;;;;;5056554;28;20433;-72
2023/12/02 15:10:16;;;;;;;13.03;7.97;;;;;;;;;;5056701;28;20423;-72
2023/12/02 15:12:43;;;;;;;15.33;11.43;;;;;;;;;;5056524;28;20422;-72